createdAt,value
2019-02-12T00:02:38.405Z,3.52
2019-02-12T00:07:33.079Z,3.51
2019-02-12T00:12:27.653Z,3.47
2019-02-12T00:17:22.331Z,3.49
2019-02-12T00:22:16.931Z,3.50
2019-02-12T00:27:11.522Z,3.48
2019-02-12T00:32:06.097Z,3.52
2019-02-12T00:37:00.712Z,3.45
2019-02-12T00:41:55.284Z,3.53
2019-02-12T00:46:49.902Z,3.51
2019-02-12T00:51:44.477Z,3.41
2019-02-12T00:56:39.075Z,3.47
2019-02-12T01:01:33.650Z,3.52
2019-02-12T01:06:28.248Z,3.54
2019-02-12T01:11:22.811Z,3.56
2019-02-12T01:16:17.412Z,3.47
2019-02-12T01:21:11.978Z,3.44
2019-02-12T01:26:06.573Z,3.34
2019-02-12T01:31:01.155Z,3.31
2019-02-12T01:35:55.760Z,3.48
2019-02-12T01:40:50.403Z,3.33
2019-02-12T01:45:44.999Z,3.40
2019-02-12T01:50:39.589Z,3.36
2019-02-12T01:55:34.171Z,3.29
2019-02-12T02:00:28.816Z,3.13
2019-02-12T02:05:23.425Z,3.05
2019-02-12T02:10:18.855Z,2.95
2019-02-12T02:15:14.684Z,2.84
2019-02-12T02:20:15.294Z,2.92
2019-02-12T02:25:12.895Z,2.89
2019-02-12T02:30:11.790Z,3.03
2019-02-12T02:35:07.169Z,3.08
2019-02-12T02:40:01.741Z,3.03
2019-02-12T02:44:56.326Z,3.23
2019-02-12T02:49:50.898Z,3.09
2019-02-12T02:54:45.502Z,3.05
2019-02-12T02:59:40.074Z,3.01
2019-02-12T03:04:34.664Z,2.99
2019-02-12T03:09:29.234Z,3.00
2019-02-12T03:14:23.840Z,2.96
2019-02-12T03:19:18.420Z,2.91
2019-02-12T03:24:13.020Z,2.88
2019-02-12T03:29:07.604Z,2.91
2019-02-12T03:34:02.218Z,2.97
2019-02-12T03:38:56.770Z,3.07
2019-02-12T03:43:51.431Z,3.15
2019-02-12T03:48:46.018Z,3.07
2019-02-12T03:53:40.602Z,3.11
2019-02-12T03:58:35.608Z,3.09
2019-02-12T04:03:31.811Z,3.25
2019-02-12T04:08:26.397Z,3.22
2019-02-12T04:13:21.067Z,3.32
2019-02-12T04:18:15.667Z,3.34
2019-02-12T04:23:10.256Z,3.34
2019-02-12T04:28:04.840Z,3.40
2019-02-12T04:32:59.436Z,3.46
2019-02-12T04:37:54.012Z,3.43
2019-02-12T04:42:48.612Z,3.40
2019-02-12T04:47:43.175Z,3.52
2019-02-12T04:52:37.773Z,3.36
2019-02-12T04:57:32.380Z,3.28
2019-02-12T05:02:26.968Z,3.27
2019-02-12T05:07:21.539Z,3.24
2019-02-12T05:12:18.972Z,3.32
2019-02-12T05:17:13.533Z,3.33
2019-02-12T05:22:08.125Z,3.26
2019-02-12T05:27:02.704Z,3.09
2019-02-12T05:31:57.298Z,2.99
2019-02-12T05:36:51.902Z,2.97
2019-02-12T05:41:46.566Z,2.95
2019-02-12T05:46:41.174Z,2.94
2019-02-12T05:51:35.770Z,2.98
2019-02-12T05:56:30.370Z,2.97
2019-02-12T06:01:24.949Z,3.01
2019-02-12T06:06:19.538Z,2.99
2019-02-12T06:11:14.136Z,2.98
2019-02-12T06:16:08.723Z,2.97
2019-02-12T06:21:03.373Z,2.96
2019-02-12T06:25:57.980Z,3.06
2019-02-12T06:30:52.576Z,3.02
2019-02-12T06:35:47.171Z,3.09
2019-02-12T06:40:41.825Z,3.13
2019-02-12T06:45:36.422Z,3.16
2019-02-12T06:50:31.008Z,3.19
2019-02-12T06:55:25.874Z,3.18
2019-02-12T07:00:20.551Z,3.11
2019-02-12T07:05:15.163Z,3.15
2019-02-12T07:10:10.783Z,3.12
2019-02-12T07:15:09.993Z,3.18
2019-02-12T07:20:18.018Z,3.21
2019-02-12T07:25:43.653Z,3.29
2019-02-12T07:31:12.642Z,3.43
2019-02-12T07:36:20.496Z,3.57
2019-02-12T07:41:37.518Z,3.64
2019-02-12T07:46:39.660Z,3.80
2019-02-12T07:52:10.535Z,3.92
2019-02-12T07:57:20.682Z,3.99
2019-02-12T08:02:39.463Z,4.04
2019-02-12T08:08:13.444Z,4.20
2019-02-12T08:13:24.324Z,4.46
2019-02-12T08:18:50.136Z,4.69
2019-02-12T08:24:11.827Z,4.80
2019-02-12T08:29:22.593Z,5.16
2019-02-12T08:34:45.602Z,4.97
2019-02-12T08:40:20.073Z,4.98
2019-02-12T08:45:52.862Z,4.92
2019-02-12T08:51:18.783Z,4.75
2019-02-12T08:56:25.775Z,5.07
2019-02-12T09:01:52.153Z,5.33
2019-02-12T09:07:16.340Z,5.97
2019-02-12T09:12:40.528Z,6.06
2019-02-12T09:17:52.100Z,6.11
2019-02-12T09:22:57.642Z,6.35
2019-02-12T09:28:29.183Z,5.92
2019-02-12T09:33:42.327Z,5.75
2019-02-12T09:39:18.045Z,5.72
2019-02-12T09:44:44.372Z,5.79
2019-02-12T09:49:56.705Z,5.83
2019-02-12T10:00:46.690Z,5.50
2019-02-12T10:06:03.569Z,5.46
2019-02-12T10:11:20.357Z,5.75
2019-02-12T10:16:31.050Z,5.51
2019-02-12T10:21:49.586Z,5.66
2019-02-12T10:27:03.396Z,5.97
2019-02-12T10:31:56.586Z,6.36
2019-02-12T10:36:51.157Z,7.03
2019-02-12T10:41:46.166Z,7.19
2019-02-12T10:46:42.375Z,7.20
2019-02-12T10:51:39.617Z,7.24
2019-02-12T10:56:34.405Z,7.21
2019-02-12T11:01:28.985Z,7.15
2019-02-12T11:06:23.667Z,7.15
2019-02-12T11:11:18.454Z,7.17
2019-02-12T11:16:13.150Z,7.28
2019-02-12T11:21:11.951Z,7.40
2019-02-12T11:26:04.190Z,6.90
2019-02-12T11:30:58.956Z,6.60
2019-02-12T11:35:53.635Z,6.77
2019-02-12T11:40:49.293Z,7.05
2019-02-12T11:45:44.252Z,7.27
2019-02-12T11:50:39.065Z,7.62
2019-02-12T11:55:34.107Z,7.36
2019-02-12T12:00:30.574Z,7.30
2019-02-12T12:05:25.140Z,7.45
2019-02-12T12:10:19.927Z,7.32
2019-02-12T12:15:16.655Z,7.46
2019-02-12T12:20:15.810Z,7.77
2019-02-12T12:25:12.601Z,7.79
2019-02-12T12:30:11.572Z,8.08
2019-02-12T12:35:11.678Z,8.21
2019-02-12T12:40:10.600Z,8.04
2019-02-12T12:45:09.748Z,7.92
2019-02-12T12:50:06.353Z,7.99
2019-02-12T12:55:01.364Z,7.84
2019-02-12T12:59:56.480Z,7.59
2019-02-12T13:04:51.429Z,7.83
2019-02-12T13:09:46.655Z,7.19
2019-02-12T13:14:41.564Z,6.94
2019-02-12T13:19:36.241Z,6.95
2019-02-12T13:24:30.915Z,7.09
2019-02-12T13:29:25.754Z,7.31
2019-02-12T13:34:20.360Z,7.26
2019-02-12T13:39:15.323Z,6.98
2019-02-12T13:44:09.944Z,6.90
2019-02-12T13:49:09.574Z,6.98
2019-02-12T13:54:05.386Z,7.05
2019-02-12T13:58:59.969Z,6.89
2019-02-12T14:03:54.836Z,6.99
2019-02-12T14:08:49.639Z,7.23
2019-02-12T14:13:44.851Z,7.12
2019-02-12T14:18:40.112Z,6.97
2019-02-12T14:23:37.329Z,7.08
2019-02-12T14:28:32.364Z,7.26
2019-02-12T14:33:28.080Z,7.25
2019-02-12T14:38:23.346Z,7.46
2019-02-12T14:43:18.454Z,7.64
2019-02-12T14:48:13.438Z,7.72
2019-02-12T14:53:08.643Z,7.73
2019-02-12T14:58:03.965Z,7.67
2019-02-12T15:03:05.772Z,7.61
2019-02-12T15:08:01.602Z,7.53
2019-02-12T15:12:56.642Z,7.43
2019-02-12T15:17:51.539Z,7.37
2019-02-12T15:22:48.429Z,7.18
2019-02-12T15:27:43.335Z,7.09
2019-02-12T15:32:38.041Z,7.00
2019-02-12T15:37:32.833Z,6.89
2019-02-12T15:42:27.599Z,6.81
2019-02-12T15:47:22.474Z,6.79
2019-02-12T15:52:17.272Z,6.74
2019-02-12T15:57:13.563Z,6.60
2019-02-12T16:02:13.909Z,6.65
2019-02-12T16:07:08.595Z,6.50
2019-02-12T16:12:06.125Z,6.39
2019-02-12T16:17:01.108Z,6.27
2019-02-12T16:21:57.200Z,6.14
2019-02-12T16:26:51.835Z,6.02
2019-02-12T16:31:47.022Z,6.01
2019-02-12T16:36:42.826Z,6.05
2019-02-12T16:41:37.760Z,6.01
2019-02-12T16:46:32.341Z,5.87
2019-02-12T16:51:26.934Z,5.64
2019-02-12T16:56:21.547Z,5.33
2019-02-12T17:01:16.110Z,5.07
2019-02-12T17:06:10.907Z,4.90
2019-02-12T17:11:05.536Z,4.77
2019-02-12T17:16:00.141Z,4.67
2019-02-12T17:20:54.716Z,4.56
2019-02-12T17:25:49.308Z,4.55
2019-02-12T17:30:43.912Z,4.47
2019-02-12T17:35:38.537Z,4.27
2019-02-12T17:40:33.138Z,4.15
2019-02-12T17:45:27.722Z,4.12
2019-02-12T17:50:22.309Z,4.12
2019-02-12T17:55:16.887Z,3.99
2019-02-12T18:00:19.516Z,3.92
2019-02-12T18:05:14.510Z,3.97
2019-02-12T18:10:11.865Z,4.06
2019-02-12T18:15:14.987Z,4.19
2019-02-12T18:20:13.673Z,4.05
2019-02-12T18:25:10.884Z,4.00
2019-02-12T18:30:12.353Z,3.99
2019-02-12T18:35:08.823Z,4.05
2019-02-12T18:40:04.857Z,4.01
2019-02-12T18:44:59.464Z,4.09
2019-02-12T18:49:54.072Z,4.06
2019-02-12T18:54:48.671Z,4.10
2019-02-12T18:59:43.240Z,4.15
2019-02-12T19:04:37.831Z,4.19
2019-02-12T19:09:32.411Z,4.14
2019-02-12T19:14:26.992Z,4.25
2019-02-12T19:19:21.576Z,4.24
2019-02-12T19:24:16.161Z,4.25
2019-02-12T19:29:10.754Z,4.31
2019-02-12T19:34:05.541Z,4.27
2019-02-12T19:39:00.147Z,4.24
2019-02-12T19:43:54.757Z,4.30
2019-02-12T19:48:49.354Z,4.22
2019-02-12T19:53:43.941Z,4.14
2019-02-12T19:58:38.552Z,4.13
2019-02-12T20:03:33.801Z,4.03
2019-02-12T20:08:28.422Z,3.95
2019-02-12T20:13:23.008Z,3.98
2019-02-12T20:18:17.598Z,3.86
2019-02-12T20:23:12.179Z,3.69
2019-02-12T20:28:06.773Z,3.61
2019-02-12T20:33:01.387Z,3.50
2019-02-12T20:37:55.951Z,3.38
2019-02-12T20:42:50.533Z,3.28
2019-02-12T20:47:45.194Z,3.21
2019-02-12T20:52:39.775Z,3.19
2019-02-12T20:57:34.379Z,2.97
2019-02-12T21:02:28.966Z,2.84
2019-02-12T21:07:23.555Z,2.74
2019-02-12T21:12:18.142Z,2.54
2019-02-12T21:17:12.739Z,2.34
2019-02-12T21:22:07.324Z,2.26
2019-02-12T21:27:01.927Z,2.31
2019-02-12T21:31:56.511Z,2.24
2019-02-12T21:36:51.099Z,1.94
2019-02-12T21:41:45.697Z,1.80
2019-02-12T21:46:40.290Z,1.76
2019-02-12T21:51:34.936Z,1.60
2019-02-12T21:56:29.527Z,1.52
2019-02-12T22:01:24.122Z,1.46
2019-02-12T22:06:18.704Z,1.36
2019-02-12T22:11:13.281Z,1.38
2019-02-12T22:16:07.891Z,1.29
2019-02-12T22:21:02.456Z,1.27
2019-02-12T22:25:57.063Z,1.39
2019-02-12T22:30:51.640Z,1.19
2019-02-12T22:35:46.232Z,1.19
2019-02-12T22:40:40.804Z,1.08
2019-02-12T22:45:35.402Z,1.17
2019-02-12T22:50:30.052Z,1.00
2019-02-12T22:55:24.642Z,0.91
2019-02-12T23:00:40.601Z,0.87
2019-02-12T23:05:35.168Z,0.94
2019-02-12T23:10:29.775Z,0.78
2019-02-12T23:15:24.333Z,0.68
2019-02-12T23:20:18.930Z,0.67
2019-02-12T23:25:13.534Z,0.75
2019-02-12T23:30:12.275Z,0.62
2019-02-12T23:35:07.589Z,0.60
2019-02-12T23:40:02.189Z,0.78
2019-02-12T23:44:56.755Z,0.58
2019-02-12T23:49:51.430Z,0.56
2019-02-12T23:54:46.000Z,0.57
2019-02-12T23:59:40.589Z,0.42
